createdAt,value
2018-05-21T00:00:45.293Z,1015.14
2018-05-21T00:01:45.303Z,1015.07
2018-05-21T00:03:38.211Z,1015.12
2018-05-21T00:04:38.237Z,1015.15
2018-05-21T00:06:31.161Z,1015.13
2018-05-21T00:07:31.165Z,1015.11
2018-05-21T00:09:24.093Z,1015.14
2018-05-21T00:10:24.097Z,1015.14
2018-05-21T00:12:17.009Z,1015.14
2018-05-21T00:13:17.031Z,1015.13
2018-05-21T00:15:09.963Z,1015.12
2018-05-21T00:16:09.964Z,1015.13
2018-05-21T00:18:02.878Z,1015.12
2018-05-21T00:19:02.905Z,1015.09
2018-05-21T00:20:55.831Z,1015.10
2018-05-21T00:21:55.835Z,1015.06
2018-05-21T00:23:49.238Z,1015.06
2018-05-21T00:24:49.262Z,1015.10
2018-05-21T00:26:42.189Z,1015.10
2018-05-21T00:27:42.194Z,1015.08
2018-05-21T00:29:35.128Z,1015.04
2018-05-21T00:30:35.134Z,1015.05
2018-05-21T00:32:28.040Z,1015.04
2018-05-21T00:33:28.061Z,1015.03
2018-05-21T00:35:21.482Z,1015.01
2018-05-21T00:36:21.491Z,1014.99
2018-05-21T00:38:14.399Z,1015.02
2018-05-21T00:39:14.419Z,1015.03
2018-05-21T00:41:07.350Z,1015.04
2018-05-21T00:42:07.353Z,1015.02
2018-05-21T00:44:00.262Z,1015.04
2018-05-21T00:45:00.284Z,1015.04
2018-05-21T00:46:53.214Z,1015.03
2018-05-21T00:47:53.219Z,1015.03
2018-05-21T00:49:46.727Z,1015.07
2018-05-21T00:50:46.731Z,1015.06
2018-05-21T00:52:39.661Z,1015.02
2018-05-21T00:53:39.684Z,1014.99
2018-05-21T00:55:32.634Z,1014.99
2018-05-21T00:56:32.643Z,1014.96
2018-05-21T00:58:25.571Z,1014.97
2018-05-21T00:59:25.597Z,1014.92
2018-05-21T01:01:19.569Z,1014.91
2018-05-21T01:02:19.575Z,1014.91
2018-05-21T01:04:13.018Z,1014.89
2018-05-21T01:05:13.040Z,1014.81
2018-05-21T01:07:06.502Z,1014.81
2018-05-21T01:08:06.508Z,1014.86
2018-05-21T01:09:59.462Z,1014.85
2018-05-21T01:10:59.457Z,1014.84
2018-05-21T01:12:52.389Z,1014.81
2018-05-21T01:13:52.411Z,1014.81
2018-05-21T01:15:45.421Z,1014.79
2018-05-21T01:16:45.365Z,1014.77
2018-05-21T01:18:38.296Z,1014.80
2018-05-21T01:19:38.320Z,1014.77
2018-05-21T01:21:31.783Z,1014.77
2018-05-21T01:22:31.786Z,1014.73
2018-05-21T01:24:27.277Z,1014.77
2018-05-21T01:25:27.302Z,1014.74
2018-05-21T01:27:20.766Z,1014.72
2018-05-21T01:28:20.767Z,1014.73
2018-05-21T01:30:13.717Z,1014.70
2018-05-21T01:31:13.720Z,1014.68
2018-05-21T01:33:06.652Z,1014.65
2018-05-21T01:34:06.673Z,1014.63
2018-05-21T01:35:59.630Z,1014.61
2018-05-21T01:36:59.628Z,1014.62
2018-05-21T01:38:52.564Z,1014.58
2018-05-21T01:39:52.582Z,1014.58
2018-05-21T01:41:45.602Z,1014.59
2018-05-21T01:42:45.536Z,1014.59
2018-05-21T01:44:38.475Z,1014.57
2018-05-21T01:45:38.495Z,1014.56
2018-05-21T01:47:31.444Z,1014.57
2018-05-21T01:48:31.446Z,1014.58
2018-05-21T01:50:24.396Z,1014.55
2018-05-21T01:51:24.399Z,1014.62
2018-05-21T01:53:17.330Z,1014.56
2018-05-21T01:54:17.352Z,1014.59
2018-05-21T01:56:10.302Z,1014.58
2018-05-21T01:57:10.336Z,1014.56
2018-05-21T01:59:03.240Z,1014.54
2018-05-21T02:00:03.261Z,1014.55
2018-05-21T02:01:57.749Z,1014.55
2018-05-21T02:02:57.752Z,1014.56
2018-05-21T02:04:50.690Z,1014.56
2018-05-21T02:05:50.707Z,1014.50
2018-05-21T02:07:43.656Z,1014.52
2018-05-21T02:08:43.658Z,1014.53
2018-05-21T02:10:36.609Z,1014.49
2018-05-21T02:11:36.612Z,1014.53
2018-05-21T02:13:29.544Z,1014.48
2018-05-21T02:14:29.567Z,1014.52
2018-05-21T02:16:22.519Z,1014.49
2018-05-21T02:17:22.524Z,1014.50
2018-05-21T02:19:15.462Z,1014.49
2018-05-21T02:20:15.480Z,1014.49
2018-05-21T02:22:08.434Z,1014.47
2018-05-21T02:23:08.435Z,1014.52
2018-05-21T02:25:01.371Z,1014.54
2018-05-21T02:26:01.387Z,1014.52
2018-05-21T02:27:57.408Z,1014.47
2018-05-21T02:28:57.410Z,1014.47
2018-05-21T02:30:50.364Z,1014.47
2018-05-21T02:31:50.364Z,1014.46
2018-05-21T02:33:43.297Z,1014.50
2018-05-21T02:34:43.320Z,1014.48
2018-05-21T02:36:36.274Z,1014.48
2018-05-21T02:37:36.277Z,1014.50
2018-05-21T02:39:29.214Z,1014.48
2018-05-21T02:40:29.229Z,1014.49
2018-05-21T02:42:22.177Z,1014.50
2018-05-21T02:43:22.183Z,1014.50
2018-05-21T02:45:15.114Z,1014.46
2018-05-21T02:46:15.134Z,1014.46
2018-05-21T02:48:08.090Z,1014.43
2018-05-21T02:49:08.088Z,1014.45
2018-05-21T02:51:01.040Z,1014.48
2018-05-21T02:52:01.046Z,1014.42
2018-05-21T02:53:53.976Z,1014.42
2018-05-21T02:54:53.998Z,1014.43
2018-05-21T02:56:47.464Z,1014.36
2018-05-21T02:57:47.462Z,1014.38
2018-05-21T02:59:40.402Z,1014.38
2018-05-21T03:00:40.418Z,1014.40
2018-05-21T03:02:33.371Z,1014.43
2018-05-21T03:03:33.377Z,1014.39
2018-05-21T03:05:26.312Z,1014.39
2018-05-21T03:06:26.327Z,1014.39
2018-05-21T03:08:19.279Z,1014.36
2018-05-21T03:09:19.281Z,1014.32
2018-05-21T03:11:12.234Z,1014.29
2018-05-21T03:12:12.233Z,1014.31
2018-05-21T03:14:05.168Z,1014.28
2018-05-21T03:15:05.190Z,1014.21
2018-05-21T03:16:58.653Z,1014.27
2018-05-21T03:17:58.660Z,1014.24
2018-05-21T03:19:52.101Z,1014.26
2018-05-21T03:20:52.119Z,1014.25
2018-05-21T03:22:45.078Z,1014.21
2018-05-21T03:23:45.076Z,1014.22
2018-05-21T03:25:38.012Z,1014.22
2018-05-21T03:26:38.029Z,1014.21
2018-05-21T03:28:30.980Z,1014.20
2018-05-21T03:29:30.984Z,1014.20
2018-05-21T03:31:23.934Z,1014.23
2018-05-21T03:32:23.938Z,1014.17
2018-05-21T03:34:16.877Z,1014.16
2018-05-21T03:35:16.894Z,1014.19
2018-05-21T03:37:09.844Z,1014.14
2018-05-21T03:38:09.847Z,1014.12
2018-05-21T03:40:02.790Z,1014.13
2018-05-21T03:41:02.800Z,1014.12
2018-05-21T03:42:55.750Z,1014.11
2018-05-21T03:43:55.757Z,1014.14
2018-05-21T03:45:49.198Z,1014.16
2018-05-21T03:46:49.219Z,1014.18
2018-05-21T03:48:42.172Z,1014.24
2018-05-21T03:49:42.173Z,1014.22
2018-05-21T03:51:35.112Z,1014.20
2018-05-21T03:52:35.111Z,1014.20
2018-05-21T03:54:28.023Z,1014.17
2018-05-21T03:55:28.042Z,1014.20
2018-05-21T03:57:21.463Z,1014.27
2018-05-21T03:58:21.466Z,1014.24
2018-05-21T04:00:14.377Z,1014.23
2018-05-21T04:01:14.396Z,1014.24
2018-05-21T04:03:07.325Z,1014.24
2018-05-21T04:04:07.327Z,1014.20
2018-05-21T04:06:00.289Z,1014.21
2018-05-21T04:07:00.310Z,1014.23
2018-05-21T04:08:54.799Z,1014.23
2018-05-21T04:09:54.803Z,1014.24
2018-05-21T04:11:49.348Z,1014.18
2018-05-21T04:12:49.293Z,1014.18
2018-05-21T04:14:42.235Z,1014.17
2018-05-21T04:15:42.249Z,1014.16
2018-05-21T04:17:35.709Z,1014.19
2018-05-21T04:18:35.715Z,1014.19
2018-05-21T04:20:28.646Z,1014.17
2018-05-21T04:21:28.673Z,1014.16
2018-05-21T04:23:23.155Z,1014.13
2018-05-21T04:24:23.161Z,1014.15
2018-05-21T04:26:16.089Z,1014.10
2018-05-21T04:27:16.120Z,1014.13
2018-05-21T04:29:09.062Z,1014.12
2018-05-21T04:30:09.068Z,1014.16
2018-05-21T04:32:02.016Z,1014.16
2018-05-21T04:33:02.026Z,1014.18
2018-05-21T04:34:55.470Z,1014.18
2018-05-21T04:35:55.495Z,1014.20
2018-05-21T04:37:48.439Z,1014.20
2018-05-21T04:38:48.449Z,1014.16
2018-05-21T04:40:41.374Z,1014.17
2018-05-21T04:41:41.403Z,1014.16
2018-05-21T04:43:34.345Z,1014.11
2018-05-21T04:44:34.357Z,1014.11
2018-05-21T04:46:27.278Z,1014.11
2018-05-21T04:47:27.307Z,1014.12
2018-05-21T04:49:20.254Z,1014.09
2018-05-21T04:50:20.265Z,1014.12
2018-05-21T04:52:13.315Z,1014.14
2018-05-21T04:53:13.325Z,1014.14
2018-05-21T04:55:06.352Z,1014.11
2018-05-21T04:56:06.380Z,1014.15
2018-05-21T04:57:59.427Z,1014.16
2018-05-21T04:58:59.438Z,1014.13
2018-05-21T05:00:52.463Z,1014.15
2018-05-21T05:01:52.495Z,1014.10
2018-05-21T05:03:45.540Z,1014.10
2018-05-21T05:04:45.551Z,1014.09
2018-05-21T05:06:38.577Z,1014.13
2018-05-21T05:07:38.607Z,1014.16
2018-05-21T05:09:31.653Z,1014.18
2018-05-21T05:10:31.663Z,1014.22
2018-05-21T05:12:24.713Z,1014.17
2018-05-21T05:13:24.720Z,1014.17
2018-05-21T05:15:17.748Z,1014.18
2018-05-21T05:16:17.779Z,1014.18
2018-05-21T05:18:10.823Z,1014.16
2018-05-21T05:19:10.835Z,1014.21
2018-05-21T05:21:03.912Z,1014.18
2018-05-21T05:22:03.890Z,1014.14
2018-05-21T05:23:56.937Z,1014.16
2018-05-21T05:24:56.947Z,1014.16
2018-05-21T05:26:49.974Z,1014.17
2018-05-21T05:27:50.005Z,1014.14
2018-05-21T05:29:43.049Z,1014.14
2018-05-21T05:30:43.061Z,1014.12
2018-05-21T05:32:36.105Z,1014.07
2018-05-21T05:33:36.120Z,1014.12
2018-05-21T05:35:29.144Z,1014.08
2018-05-21T05:36:29.182Z,1014.11
2018-05-21T05:38:22.219Z,1014.07
2018-05-21T05:39:22.236Z,1014.04
2018-05-21T05:41:15.257Z,1014.04
2018-05-21T05:42:15.288Z,1014.04
2018-05-21T05:44:08.333Z,1014.00
2018-05-21T05:45:08.348Z,1013.98
2018-05-21T05:47:01.372Z,1013.98
2018-05-21T05:48:01.403Z,1013.98
2018-05-21T05:49:54.451Z,1014.03
2018-05-21T05:50:54.464Z,1014.02
2018-05-21T05:52:47.503Z,1013.99
2018-05-21T05:53:47.517Z,1014.04
2018-05-21T05:55:40.540Z,1014.01
2018-05-21T05:56:40.572Z,1014.00
2018-05-21T05:58:34.023Z,1014.03
2018-05-21T05:59:34.038Z,1014.00
2018-05-21T06:01:27.061Z,1014.02
2018-05-21T06:02:27.094Z,1013.98
2018-05-21T06:04:20.140Z,1013.94
2018-05-21T06:05:20.152Z,1013.92
2018-05-21T06:07:13.585Z,1013.91
2018-05-21T06:08:13.617Z,1013.94
2018-05-21T06:10:06.661Z,1013.96
2018-05-21T06:11:06.675Z,1013.93
2018-05-21T06:12:59.716Z,1013.91
2018-05-21T06:13:59.729Z,1013.89
2018-05-21T06:15:52.755Z,1013.87
2018-05-21T06:16:52.789Z,1013.89
2018-05-21T06:18:45.831Z,1013.88
2018-05-21T06:19:45.847Z,1013.90
2018-05-21T06:21:38.868Z,1013.89
2018-05-21T06:22:38.902Z,1013.86
2018-05-21T06:24:31.947Z,1013.86
2018-05-21T06:25:31.960Z,1013.81
2018-05-21T06:27:24.983Z,1013.80
2018-05-21T06:28:25.017Z,1013.75
2018-05-21T06:30:18.055Z,1013.81
2018-05-21T06:31:18.074Z,1013.86
2018-05-21T06:33:11.115Z,1013.81
2018-05-21T06:34:11.237Z,1013.78
2018-05-21T06:36:04.152Z,1013.76
2018-05-21T06:37:04.184Z,1013.78
2018-05-21T06:38:57.228Z,1013.78
2018-05-21T06:39:57.242Z,1013.77
2018-05-21T06:41:50.783Z,1013.79
2018-05-21T06:42:50.813Z,1013.77
2018-05-21T06:44:43.893Z,1013.74
2018-05-21T06:45:43.812Z,1013.68
2018-05-21T06:47:36.793Z,1013.70
2018-05-21T06:48:36.824Z,1013.70
2018-05-21T06:50:29.862Z,1013.65
2018-05-21T06:51:29.879Z,1013.68
2018-05-21T06:53:22.918Z,1013.62
2018-05-21T06:54:22.933Z,1013.65
2018-05-21T06:56:15.957Z,1013.66
2018-05-21T06:57:15.992Z,1013.64
2018-05-21T06:59:09.033Z,1013.64
2018-05-21T07:00:09.047Z,1013.59
2018-05-21T07:02:03.505Z,1013.65
2018-05-21T07:03:03.540Z,1013.60
2018-05-21T07:04:56.581Z,1013.59
2018-05-21T07:05:56.596Z,1013.58
2018-05-21T07:07:49.617Z,1013.63
2018-05-21T07:08:49.649Z,1013.63
2018-05-21T07:10:42.692Z,1013.62
2018-05-21T07:11:42.708Z,1013.55
2018-05-21T07:13:35.749Z,1013.55
2018-05-21T07:14:35.767Z,1013.57
2018-05-21T07:16:29.300Z,1013.58
2018-05-21T07:17:29.333Z,1013.61
2018-05-21T07:19:22.374Z,1013.55
2018-05-21T07:20:22.388Z,1013.65
2018-05-21T07:22:16.844Z,1013.60
2018-05-21T07:23:16.876Z,1013.54
2018-05-21T07:25:09.823Z,1013.55
2018-05-21T07:26:09.834Z,1013.56
2018-05-21T07:28:02.854Z,1013.54
2018-05-21T07:29:02.884Z,1013.52
2018-05-21T07:30:55.928Z,1013.45
2018-05-21T07:31:55.941Z,1013.48
2018-05-21T07:33:48.985Z,1013.48
2018-05-21T07:34:48.996Z,1013.45
2018-05-21T07:36:42.022Z,1013.42
2018-05-21T07:37:42.054Z,1013.45
2018-05-21T07:39:35.619Z,1013.41
2018-05-21T07:40:35.630Z,1013.39
2018-05-21T07:42:28.647Z,1013.32
2018-05-21T07:43:28.677Z,1013.36
2018-05-21T07:45:22.132Z,1013.32
2018-05-21T07:46:22.141Z,1013.26
2018-05-21T07:48:15.169Z,1013.25
2018-05-21T07:49:15.199Z,1013.28
2018-05-21T07:51:08.632Z,1013.26
2018-05-21T07:52:08.645Z,1013.30
2018-05-21T07:54:01.609Z,1013.23
2018-05-21T07:55:01.620Z,1013.25
2018-05-21T07:56:54.646Z,1013.21
2018-05-21T07:57:54.676Z,1013.24
2018-05-21T07:59:47.722Z,1013.16
2018-05-21T08:00:47.732Z,1013.19
2018-05-21T08:02:40.759Z,1013.22
2018-05-21T08:03:40.786Z,1013.20
2018-05-21T08:05:33.834Z,1013.15
2018-05-21T08:06:33.846Z,1013.14
2018-05-21T08:08:26.872Z,1013.11
2018-05-21T08:09:26.899Z,1013.08
2018-05-21T08:11:20.356Z,1013.06
2018-05-21T08:12:20.367Z,1013.08
2018-05-21T08:14:13.313Z,1013.10
2018-05-21T08:15:13.322Z,1013.07
2018-05-21T08:17:06.350Z,1013.06
2018-05-21T08:18:06.377Z,1013.05
2018-05-21T08:19:59.423Z,1012.99
2018-05-21T08:20:59.434Z,1013.01
2018-05-21T08:22:52.871Z,1012.99
2018-05-21T08:23:52.901Z,1012.97
2018-05-21T08:25:56.323Z,1012.98
2018-05-21T08:26:46.168Z,1012.93
2018-05-21T08:28:39.192Z,1012.95
2018-05-21T08:29:48.456Z,1012.97
2018-05-21T08:31:32.265Z,1012.93
2018-05-21T08:32:32.277Z,1012.94
2018-05-21T08:34:33.804Z,1012.98
2018-05-21T08:35:25.762Z,1012.93
2018-05-21T08:37:18.767Z,1012.91
2018-05-21T08:38:28.041Z,1012.90
2018-05-21T08:40:20.991Z,1012.96
2018-05-21T08:41:13.292Z,1012.85
2018-05-21T08:43:06.314Z,1012.89
2018-05-21T08:44:06.342Z,1012.82
2018-05-21T08:45:59.390Z,1012.82
2018-05-21T08:46:59.401Z,1012.85
2018-05-21T08:48:53.455Z,1012.85
2018-05-21T08:49:53.379Z,1012.83
2018-05-21T08:51:46.425Z,1012.79
2018-05-21T08:52:46.435Z,1012.79
2018-05-21T08:54:39.494Z,1012.83
2018-05-21T08:55:39.505Z,1012.73
2018-05-21T08:57:32.520Z,1012.77
2018-05-21T08:58:32.550Z,1012.77
2018-05-21T09:00:26.061Z,1012.71
2018-05-21T09:01:26.015Z,1012.75
2018-05-21T09:03:19.041Z,1012.72
2018-05-21T09:04:19.071Z,1012.70
2018-05-21T09:06:15.091Z,1012.71
2018-05-21T09:07:15.097Z,1012.69
2018-05-21T09:09:08.124Z,1012.66
2018-05-21T09:10:08.213Z,1012.64
2018-05-21T09:12:01.612Z,1012.57
2018-05-21T09:13:01.620Z,1012.62
2018-05-21T09:14:55.088Z,1012.58
2018-05-21T09:15:55.088Z,1012.59
2018-05-21T09:17:48.114Z,1012.57
2018-05-21T09:18:48.144Z,1012.58
2018-05-21T09:20:41.599Z,1012.52
2018-05-21T09:21:41.607Z,1012.54
2018-05-21T09:23:34.641Z,1012.50
2018-05-21T09:24:34.666Z,1012.47
2018-05-21T09:26:27.713Z,1012.51
2018-05-21T09:27:27.723Z,1012.52
2018-05-21T09:29:20.749Z,1012.47
2018-05-21T09:30:20.779Z,1012.39
2018-05-21T09:32:14.235Z,1012.50
2018-05-21T09:33:14.246Z,1012.44
2018-05-21T09:35:07.294Z,1012.41
2018-05-21T09:36:07.300Z,1012.44
2018-05-21T09:38:00.331Z,1012.35
2018-05-21T09:39:17.485Z,1012.28
2018-05-21T09:40:53.304Z,1012.40
2018-05-21T09:42:00.452Z,1012.31
2018-05-21T09:43:53.979Z,1012.33
2018-05-21T09:44:53.864Z,1012.33
2018-05-21T09:46:46.811Z,1012.39
2018-05-21T09:47:46.819Z,1012.29
2018-05-21T09:49:32.646Z,1012.33
2018-05-21T09:50:32.644Z,1012.27
2018-05-21T09:52:25.557Z,1012.29
2018-05-21T09:53:25.587Z,1012.28
2018-05-21T09:55:18.710Z,1012.21
2018-05-21T09:56:18.717Z,1012.24
2018-05-21T09:58:11.643Z,1012.26
2018-05-21T09:59:11.665Z,1012.21
2018-05-21T10:01:05.124Z,1012.21
2018-05-21T10:02:05.117Z,1012.20
2018-05-21T10:03:58.043Z,1012.21
2018-05-21T10:04:58.119Z,1012.13
2018-05-21T10:06:51.008Z,1012.04
2018-05-21T10:07:51.014Z,1012.10
2018-05-21T10:09:43.931Z,1012.10
2018-05-21T10:10:43.962Z,1012.10
2018-05-21T10:12:36.903Z,1012.10
2018-05-21T10:13:36.911Z,1012.04
2018-05-21T10:15:29.857Z,1012.05
2018-05-21T10:16:29.860Z,1012.01
2018-05-21T10:18:23.782Z,1012.00
2018-05-21T10:19:23.884Z,1012.00
2018-05-21T10:21:16.749Z,1011.98
2018-05-21T10:22:16.759Z,1011.94
2018-05-21T10:24:09.755Z,1011.97
2018-05-21T10:25:09.705Z,1012.00
2018-05-21T10:27:02.645Z,1011.90
2018-05-21T10:28:02.654Z,1011.92
2018-05-21T10:29:56.596Z,1011.88
2018-05-21T10:30:56.594Z,1011.83
2018-05-21T10:32:49.515Z,1011.79
2018-05-21T10:33:49.542Z,1011.81
2018-05-21T10:35:42.489Z,1011.74
2018-05-21T10:36:42.489Z,1011.75
2018-05-21T10:38:35.410Z,1011.74
2018-05-21T10:39:35.438Z,1011.73
2018-05-21T10:41:28.380Z,1011.69
2018-05-21T10:42:28.390Z,1011.66
2018-05-21T10:44:21.308Z,1011.71
2018-05-21T10:45:21.335Z,1011.72
2018-05-21T10:47:14.300Z,1011.68
2018-05-21T10:48:14.296Z,1011.66
2018-05-21T10:50:07.226Z,1011.72
2018-05-21T10:51:07.233Z,1011.80
2018-05-21T10:53:00.176Z,1011.61
2018-05-21T10:54:00.180Z,1011.64
2018-05-21T10:55:53.128Z,1011.49
2018-05-21T10:56:53.134Z,1011.50
2018-05-21T10:58:46.062Z,1011.57
2018-05-21T10:59:46.081Z,1011.55
2018-05-21T11:01:39.212Z,1011.57
2018-05-21T11:02:39.216Z,1011.49
2018-05-21T11:04:32.358Z,1011.44
2018-05-21T11:05:32.392Z,1011.46
2018-05-21T11:07:25.320Z,1011.35
2018-05-21T11:08:25.329Z,1011.41
2018-05-21T11:10:18.459Z,1011.49
2018-05-21T11:11:18.487Z,1011.38
2018-05-21T11:13:11.429Z,1011.35
2018-05-21T11:14:11.437Z,1011.36
2018-05-21T11:16:04.376Z,1011.32
2018-05-21T11:17:04.385Z,1011.32
2018-05-21T11:18:57.304Z,1011.30
2018-05-21T11:19:57.332Z,1011.36
2018-05-21T11:21:50.274Z,1011.26
2018-05-21T11:22:50.279Z,1011.28
2018-05-21T11:24:43.218Z,1011.18
2018-05-21T11:25:43.231Z,1011.19
2018-05-21T11:27:37.170Z,1011.22
2018-05-21T11:28:37.176Z,1011.18
2018-05-21T11:30:30.093Z,1011.12
2018-05-21T11:31:30.122Z,1011.10
2018-05-21T11:33:23.063Z,1011.12
2018-05-21T11:34:23.070Z,1011.07
2018-05-21T11:36:17.008Z,1011.06
2018-05-21T11:37:17.018Z,1011.03
2018-05-21T11:39:09.934Z,1010.99
2018-05-21T11:40:09.965Z,1011.00
2018-05-21T11:42:02.902Z,1010.95
2018-05-21T11:43:02.912Z,1010.95
2018-05-21T11:44:55.832Z,1010.86
2018-05-21T11:45:55.859Z,1010.92
2018-05-21T11:47:48.802Z,1010.93
2018-05-21T11:48:48.807Z,1010.89
2018-05-21T11:50:41.840Z,1010.94
2018-05-21T11:51:41.760Z,1010.88
2018-05-21T11:53:34.677Z,1010.90
2018-05-21T11:54:34.705Z,1010.83
2018-05-21T11:56:27.643Z,1010.78
2018-05-21T11:57:27.651Z,1010.78
2018-05-21T11:59:20.574Z,1010.85
2018-05-21T12:00:20.602Z,1010.78
2018-05-21T12:02:13.542Z,1010.77
2018-05-21T12:03:13.549Z,1010.74
2018-05-21T12:05:06.469Z,1010.80
2018-05-21T12:06:06.498Z,1010.77
2018-05-21T12:07:59.438Z,1010.75
2018-05-21T12:08:59.445Z,1010.65
2018-05-21T12:10:52.386Z,1010.66
2018-05-21T12:11:52.393Z,1010.67
2018-05-21T12:13:45.333Z,1010.64
2018-05-21T12:14:45.342Z,1010.66
2018-05-21T12:16:38.290Z,1010.51
2018-05-21T12:17:38.296Z,1010.61
2018-05-21T12:19:31.222Z,1010.51
2018-05-21T12:20:31.249Z,1010.54
2018-05-21T12:22:24.286Z,1010.53
2018-05-21T12:23:24.212Z,1010.51
2018-05-21T12:25:17.314Z,1010.56
2018-05-21T12:26:17.343Z,1010.64
2018-05-21T12:28:11.285Z,1010.49
2018-05-21T12:29:11.289Z,1010.54
2018-05-21T12:31:04.705Z,1010.43
2018-05-21T12:32:04.735Z,1010.43
2018-05-21T12:33:57.681Z,1010.40
2018-05-21T12:34:57.682Z,1010.34
2018-05-21T12:36:50.623Z,1010.39
2018-05-21T12:37:50.632Z,1010.29
2018-05-21T12:39:43.553Z,1010.37
2018-05-21T12:40:43.581Z,1010.30
2018-05-21T12:42:36.520Z,1010.31
2018-05-21T12:43:36.526Z,1010.21
2018-05-21T12:45:29.450Z,1010.33
2018-05-21T12:46:29.477Z,1010.25
2018-05-21T12:48:22.417Z,1010.24
2018-05-21T12:49:22.427Z,1010.22
2018-05-21T12:51:15.356Z,1010.21
2018-05-21T12:52:15.386Z,1010.23
2018-05-21T12:54:08.514Z,1010.27
2018-05-21T12:55:08.521Z,1010.33
2018-05-21T12:57:01.466Z,1010.12
2018-05-21T12:58:01.481Z,1010.18
2018-05-21T12:59:54.397Z,1010.17
2018-05-21T13:00:54.423Z,1010.25
2018-05-21T13:02:47.366Z,1010.29
2018-05-21T13:03:47.389Z,1010.16
2018-05-21T13:05:40.570Z,1010.18
2018-05-21T13:06:40.546Z,1010.17
2018-05-21T13:08:33.495Z,1010.22
2018-05-21T13:09:33.496Z,1010.25
2018-05-21T13:11:26.450Z,1010.16
2018-05-21T13:12:26.478Z,1010.12
2018-05-21T13:14:19.937Z,1010.25
2018-05-21T13:15:19.987Z,1010.19
2018-05-21T13:17:12.861Z,1010.02
2018-05-21T13:18:12.867Z,1010.09
2018-05-21T13:20:06.284Z,1010.11
2018-05-21T13:21:06.309Z,1010.04
2018-05-21T13:22:59.254Z,1010.06
2018-05-21T13:23:59.303Z,1009.93
2018-05-21T13:25:52.177Z,1009.99
2018-05-21T13:26:52.210Z,1010.19
2018-05-21T13:28:45.147Z,1009.92
2018-05-21T13:29:45.155Z,1009.99
2018-05-21T13:31:38.077Z,1010.12
2018-05-21T13:32:38.109Z,1009.97
2018-05-21T13:34:31.056Z,1009.94
2018-05-21T13:35:31.051Z,1009.88
2018-05-21T13:37:24.001Z,1010.00
2018-05-21T13:38:24.039Z,1009.97
2018-05-21T13:40:16.925Z,1009.78
2018-05-21T13:41:16.954Z,1009.93
2018-05-21T13:43:09.953Z,1009.88
2018-05-21T13:44:09.903Z,1009.85
2018-05-21T13:46:02.827Z,1009.72
2018-05-21T13:47:02.852Z,1009.69
2018-05-21T13:48:55.803Z,1009.68
2018-05-21T13:49:55.809Z,1009.68
2018-05-21T13:51:49.219Z,1009.66
2018-05-21T13:52:49.317Z,1009.65
2018-05-21T13:54:42.395Z,1009.60
2018-05-21T13:55:42.403Z,1009.65
2018-05-21T13:57:35.344Z,1009.62
2018-05-21T13:58:35.352Z,1009.57
2018-05-21T14:00:28.274Z,1009.56
2018-05-21T14:01:28.304Z,1009.47
2018-05-21T14:03:21.244Z,1009.47
2018-05-21T14:04:21.253Z,1009.47
2018-05-21T14:06:14.174Z,1009.47
2018-05-21T14:07:14.202Z,1009.48
2018-05-21T14:09:07.151Z,1009.45
2018-05-21T14:10:07.153Z,1009.49
2018-05-21T14:12:00.075Z,1009.54
2018-05-21T14:13:00.101Z,1009.45
2018-05-21T14:14:53.045Z,1009.42
2018-05-21T14:15:53.057Z,1009.44
2018-05-21T14:17:45.990Z,1009.43
2018-05-21T14:18:46.003Z,1009.41
2018-05-21T14:20:38.920Z,1009.50
2018-05-21T14:21:38.970Z,1009.44
2018-05-21T14:23:31.889Z,1009.42
2018-05-21T14:24:31.918Z,1009.34
2018-05-21T14:26:24.992Z,1009.33
2018-05-21T14:27:25.033Z,1009.30
2018-05-21T14:29:18.156Z,1009.33
2018-05-21T14:30:18.164Z,1009.44
2018-05-21T14:32:11.291Z,1009.29
2018-05-21T14:33:11.414Z,1009.34
2018-05-21T14:35:04.765Z,1009.20
2018-05-21T14:36:04.782Z,1009.39
2018-05-21T14:37:57.941Z,1009.09
2018-05-21T14:38:57.968Z,1009.28
2018-05-21T14:40:51.073Z,1009.24
2018-05-21T14:41:51.109Z,1009.14
2018-05-21T14:43:44.258Z,1009.18
2018-05-21T14:44:44.267Z,1009.30
2018-05-21T14:46:37.188Z,1009.12
2018-05-21T14:47:37.214Z,1009.04
2018-05-21T14:49:30.366Z,1009.11
2018-05-21T14:50:30.375Z,1009.03
2018-05-21T14:52:23.508Z,1009.28
2018-05-21T14:53:23.535Z,1009.00
2018-05-21T14:55:16.477Z,1009.02
2018-05-21T14:56:16.486Z,1008.92
2018-05-21T14:58:09.648Z,1008.98
2018-05-21T14:59:09.647Z,1009.06
2018-05-21T15:01:02.779Z,1008.98
2018-05-21T15:02:02.886Z,1009.17
2018-05-21T15:03:55.957Z,1008.98
2018-05-21T15:04:55.965Z,1008.98
2018-05-21T15:06:49.097Z,1009.01
2018-05-21T15:07:49.124Z,1008.92
2018-05-21T15:09:42.066Z,1008.88
2018-05-21T15:10:42.074Z,1008.87
2018-05-21T15:12:35.193Z,1008.84
2018-05-21T15:13:35.223Z,1008.84
2018-05-21T15:15:28.401Z,1008.78
2018-05-21T15:16:28.404Z,1008.84
2018-05-21T15:18:21.548Z,1008.81
2018-05-21T15:19:21.556Z,1008.84
2018-05-21T15:21:14.688Z,1008.76
2018-05-21T15:22:14.762Z,1008.73
2018-05-21T15:24:07.661Z,1008.73
2018-05-21T15:25:07.685Z,1008.80
2018-05-21T15:27:00.592Z,1008.72
2018-05-21T15:28:00.617Z,1008.72
2018-05-21T15:29:53.557Z,1008.71
2018-05-21T15:30:53.572Z,1008.74
2018-05-21T15:32:46.709Z,1008.73
2018-05-21T15:33:46.735Z,1008.72
2018-05-21T15:35:39.711Z,1008.68
2018-05-21T15:36:39.727Z,1008.79
2018-05-21T15:38:33.158Z,1008.70
2018-05-21T15:39:33.170Z,1008.69
2018-05-21T15:41:27.587Z,1008.67
2018-05-21T15:42:27.617Z,1008.69
2018-05-21T15:44:20.558Z,1008.67
2018-05-21T15:45:20.568Z,1008.65
2018-05-21T15:47:13.989Z,1008.64
2018-05-21T15:48:14.018Z,1008.64
2018-05-21T15:50:08.455Z,1008.59
2018-05-21T15:51:08.467Z,1008.55
2018-05-21T15:53:01.393Z,1008.57
2018-05-21T15:54:01.425Z,1008.50
2018-05-21T15:55:55.870Z,1008.56
2018-05-21T15:56:55.883Z,1008.50
2018-05-21T15:58:48.825Z,1008.46
2018-05-21T15:59:48.836Z,1008.46
2018-05-21T16:01:41.761Z,1008.41
2018-05-21T16:02:41.791Z,1008.38
2018-05-21T16:04:35.228Z,1008.36
2018-05-21T16:05:35.243Z,1008.41
2018-05-21T16:07:28.658Z,1008.29
2018-05-21T16:08:28.691Z,1008.40
2018-05-21T16:10:22.129Z,1008.41
2018-05-21T16:11:22.141Z,1008.42
2018-05-21T16:13:15.578Z,1008.41
2018-05-21T16:14:15.591Z,1008.45
2018-05-21T16:16:08.536Z,1008.32
2018-05-21T16:17:08.545Z,1008.37
2018-05-21T16:19:01.986Z,1008.36
2018-05-21T16:20:01.995Z,1008.34
2018-05-21T16:21:55.428Z,1008.31
2018-05-21T16:22:55.456Z,1008.33
2018-05-21T16:24:48.895Z,1008.31
2018-05-21T16:25:48.906Z,1008.33
2018-05-21T16:27:42.328Z,1008.32
2018-05-21T16:28:42.355Z,1008.31
2018-05-21T16:30:35.298Z,1008.28
2018-05-21T16:31:35.310Z,1008.25
2018-05-21T16:33:29.753Z,1008.28
2018-05-21T16:34:29.757Z,1008.29
2018-05-21T16:36:23.195Z,1008.31
2018-05-21T16:37:23.220Z,1008.43
2018-05-21T16:39:16.661Z,1008.28
2018-05-21T16:40:16.671Z,1008.28
2018-05-21T16:42:10.185Z,1008.28
2018-05-21T16:43:10.216Z,1008.43
2018-05-21T16:45:03.257Z,1008.30
2018-05-21T16:46:03.271Z,1008.31
2018-05-21T16:47:56.295Z,1008.30
2018-05-21T16:48:56.324Z,1008.39
2018-05-21T16:50:49.371Z,1008.26
2018-05-21T16:51:49.382Z,1008.28
2018-05-21T16:53:42.426Z,1008.26
2018-05-21T16:54:42.437Z,1008.22
2018-05-21T16:56:35.465Z,1008.27
2018-05-21T16:57:35.494Z,1008.37
2018-05-21T16:59:28.537Z,1008.35
2018-05-21T17:00:28.571Z,1008.27
2018-05-21T17:02:21.987Z,1008.22
2018-05-21T17:03:22.018Z,1008.24
2018-05-21T17:05:15.470Z,1008.30
2018-05-21T17:06:15.482Z,1008.26
2018-05-21T17:08:08.920Z,1008.27
2018-05-21T17:09:08.951Z,1008.32
2018-05-21T17:11:01.994Z,1008.34
2018-05-21T17:12:02.006Z,1008.34
2018-05-21T17:13:55.523Z,1008.32
2018-05-21T17:14:55.481Z,1008.33
2018-05-21T17:16:48.496Z,1008.28
2018-05-21T17:17:48.530Z,1008.34
2018-05-21T17:19:41.572Z,1008.25
2018-05-21T17:20:41.583Z,1008.25
2018-05-21T17:22:34.609Z,1008.36
2018-05-21T17:23:34.639Z,1008.26
2018-05-21T17:25:27.685Z,1008.26
2018-05-21T17:26:27.696Z,1008.19